createdAt,value
2023-02-13T00:03:40.365Z,50.00
2023-02-13T00:08:52.521Z,46.30
2023-02-13T00:14:01.809Z,48.90
2023-02-13T00:19:26.679Z,42.90
2023-02-13T00:24:41.877Z,45.70
2023-02-13T00:30:04.372Z,38.40
2023-02-13T00:35:17.985Z,48.80
2023-02-13T00:40:27.927Z,42.20
2023-02-13T00:45:36.465Z,45.20
2023-02-13T00:50:42.930Z,39.70
2023-02-13T00:56:02.966Z,39.50
2023-02-13T01:01:13.261Z,43.10
2023-02-13T01:06:20.401Z,41.00
2023-02-13T01:11:28.747Z,43.90
2023-02-13T01:16:36.266Z,38.80
2023-02-13T01:21:45.006Z,33.70
2023-02-13T01:26:56.403Z,38.90
2023-02-13T01:32:12.976Z,40.60
2023-02-13T01:37:17.197Z,30.90
2023-02-13T01:42:26.083Z,33.30
2023-02-13T01:47:40.609Z,40.60
2023-02-13T01:52:51.428Z,34.00
2023-02-13T01:58:10.438Z,25.60
2023-02-13T02:03:18.924Z,28.30
2023-02-13T02:08:25.803Z,30.00
2023-02-13T02:13:30.441Z,28.40
2023-02-13T02:18:39.126Z,27.50
2023-02-13T02:24:10.235Z,28.90
2023-02-13T02:29:47.090Z,29.30
2023-02-13T02:34:57.967Z,34.50
2023-02-13T02:40:16.324Z,30.20
2023-02-13T02:45:26.277Z,28.90
2023-02-13T02:50:37.420Z,25.50
2023-02-13T02:55:47.894Z,33.80
2023-02-13T03:01:11.296Z,28.10
2023-02-13T03:06:20.162Z,32.60
2023-02-13T03:11:41.717Z,32.10
2023-02-13T03:17:03.845Z,26.10
2023-02-13T03:27:56.891Z,32.60
2023-02-13T03:33:12.148Z,26.00
2023-02-13T03:38:22.303Z,27.30
2023-02-13T03:43:29.777Z,32.90
2023-02-13T03:48:55.828Z,23.10
2023-02-13T03:54:04.567Z,34.10
2023-02-13T03:59:16.622Z,34.40
2023-02-13T04:09:29.242Z,40.50
2023-02-13T04:14:38.294Z,33.80
2023-02-13T04:19:42.060Z,34.60
2023-02-13T04:24:46.649Z,39.80
2023-02-13T04:29:50.117Z,41.50
2023-02-13T04:34:53.736Z,39.30
2023-02-13T04:39:57.078Z,47.70
2023-02-13T04:45:00.634Z,46.60
2023-02-13T04:50:04.662Z,49.00
2023-02-13T04:55:08.725Z,46.80
2023-02-13T05:00:14.193Z,44.40
2023-02-13T05:05:18.361Z,45.50
2023-02-13T05:10:22.016Z,42.90
2023-02-13T05:15:25.837Z,40.70
2023-02-13T05:20:29.339Z,45.20
2023-02-13T05:25:33.440Z,41.20
2023-02-13T05:30:38.602Z,49.40
2023-02-13T05:35:42.050Z,53.00
2023-02-13T05:40:45.647Z,47.00
2023-02-13T05:45:49.261Z,48.70
2023-02-13T05:50:52.833Z,53.00
2023-02-13T05:55:56.967Z,45.40
2023-02-13T06:01:00.962Z,49.30
2023-02-13T06:06:05.338Z,50.50
2023-02-13T06:11:10.819Z,45.20
2023-02-13T06:16:14.354Z,57.40
2023-02-13T06:21:17.865Z,51.10
2023-02-13T06:26:21.261Z,49.60
2023-02-13T06:31:25.045Z,53.40
2023-02-13T06:36:28.964Z,53.10
2023-02-13T06:41:32.679Z,47.30
2023-02-13T06:46:36.230Z,52.50
2023-02-13T06:51:39.873Z,55.70
2023-02-13T06:56:43.488Z,54.00
2023-02-13T07:01:47.683Z,59.10
2023-02-13T07:06:51.057Z,61.20
2023-02-13T07:11:54.508Z,60.00
2023-02-13T07:16:58.682Z,50.10
2023-02-13T07:22:02.265Z,48.20
2023-02-13T07:27:05.791Z,49.40
2023-02-13T07:32:09.655Z,55.40
2023-02-13T07:37:13.304Z,49.50
2023-02-13T07:42:16.854Z,47.40
2023-02-13T07:47:20.523Z,52.50
2023-02-13T07:52:24.099Z,51.60
2023-02-13T07:57:28.016Z,56.40
2023-02-13T08:02:31.412Z,58.60
2023-02-13T08:07:35.627Z,59.20
2023-02-13T08:12:39.247Z,56.50
2023-02-13T08:17:42.661Z,58.10
2023-02-13T08:22:46.080Z,52.10
2023-02-13T08:27:49.361Z,56.00
2023-02-13T08:32:54.457Z,59.00
2023-02-13T08:38:01.154Z,53.40
2023-02-13T08:43:05.980Z,58.20
2023-02-13T08:48:09.589Z,54.10
2023-02-13T08:53:13.043Z,49.00
2023-02-13T08:58:16.895Z,46.30
2023-02-13T09:03:20.557Z,55.60
2023-02-13T09:08:24.269Z,54.80
2023-02-13T09:13:32.618Z,43.40
2023-02-13T09:18:36.056Z,37.90
2023-02-13T09:23:40.958Z,9.80
2023-02-13T09:28:44.761Z,8.60
2023-02-13T09:33:56.613Z,9.50
2023-02-13T09:44:13.933Z,9.40
2023-02-13T09:49:22.785Z,10.20
2023-02-13T09:54:28.394Z,8.20
2023-02-13T09:59:51.492Z,8.90
2023-02-13T10:05:07.546Z,9.00
2023-02-13T10:10:28.946Z,5.60
2023-02-13T10:15:45.226Z,9.30
2023-02-13T10:20:57.261Z,8.30
2023-02-13T10:26:04.465Z,7.60
2023-02-13T10:31:14.726Z,6.70
2023-02-13T10:36:28.610Z,5.90
2023-02-13T10:41:48.143Z,5.90
2023-02-13T10:47:16.850Z,9.50
2023-02-13T10:52:31.166Z,9.10
2023-02-13T10:58:01.970Z,6.70
2023-02-13T11:03:28.746Z,6.10
2023-02-13T11:08:43.435Z,9.00
2023-02-13T11:14:16.052Z,12.40
2023-02-13T11:19:40.488Z,7.40
2023-02-13T11:25:03.256Z,8.20
2023-02-13T11:30:33.659Z,8.00
2023-02-13T11:35:41.755Z,6.40
2023-02-13T11:41:10.026Z,5.50
2023-02-13T11:46:23.360Z,7.40
2023-02-13T11:51:43.598Z,9.80
2023-02-13T11:57:07.335Z,7.10
2023-02-13T12:02:20.999Z,5.10
2023-02-13T12:07:33.406Z,5.30
2023-02-13T12:12:43.237Z,7.30
2023-02-13T12:17:52.478Z,7.80
2023-02-13T12:23:23.149Z,6.40
2023-02-13T12:28:45.338Z,7.30
2023-02-13T12:34:30.514Z,6.70
2023-02-13T12:40:08.125Z,7.10
2023-02-13T12:45:34.447Z,8.50
2023-02-13T12:50:57.443Z,7.60
2023-02-13T12:56:32.705Z,10.80
2023-02-13T13:02:21.739Z,8.40
2023-02-13T13:08:04.900Z,7.30
2023-02-13T13:13:29.985Z,8.20
2023-02-13T13:18:45.625Z,7.60
2023-02-13T13:24:05.818Z,5.60
2023-02-13T13:29:15.339Z,6.40
2023-02-13T13:34:24.685Z,9.30
2023-02-13T13:39:49.520Z,6.60
2023-02-13T13:45:20.091Z,7.60
2023-02-13T13:50:27.599Z,6.10
2023-02-13T13:56:06.468Z,9.60
2023-02-13T14:01:36.981Z,8.30
2023-02-13T14:07:25.467Z,9.80
2023-02-13T14:12:48.186Z,10.80
2023-02-13T14:17:56.098Z,8.30
2023-02-13T14:23:22.559Z,9.80
2023-02-13T14:28:27.571Z,10.20
2023-02-13T14:33:32.949Z,10.30
2023-02-13T14:38:46.490Z,11.00
2023-02-13T14:43:59.593Z,9.70
2023-02-13T14:49:15.813Z,8.90
2023-02-13T14:54:30.822Z,10.60
2023-02-13T14:59:49.699Z,9.90
2023-02-13T15:05:01.282Z,10.40
2023-02-13T15:10:25.387Z,11.70
2023-02-13T15:15:34.915Z,11.70
2023-02-13T15:20:43.014Z,10.50
2023-02-13T15:25:50.552Z,9.10
2023-02-13T15:31:00.934Z,8.80
2023-02-13T15:36:45.116Z,9.90
2023-02-13T15:56:14.306Z,11.30
2023-02-13T16:02:27.209Z,9.50
2023-02-13T16:32:25.248Z,17.50
2023-02-13T16:38:23.159Z,18.80
2023-02-13T16:44:13.409Z,19.20
2023-02-13T16:56:20.177Z,21.80
2023-02-13T17:15:49.531Z,18.40
2023-02-13T17:21:35.005Z,21.30
2023-02-13T18:07:18.555Z,79.70
2023-02-13T18:12:25.637Z,35.00
2023-02-13T18:24:35.159Z,37.80
2023-02-13T18:30:17.832Z,40.70
2023-02-13T18:35:39.176Z,39.20
2023-02-13T18:40:42.763Z,48.90
2023-02-13T18:45:46.225Z,37.50
2023-02-13T18:50:49.696Z,36.00
2023-02-13T18:56:00.959Z,39.00
2023-02-13T19:01:09.207Z,34.70
2023-02-13T19:06:15.008Z,33.20
2023-02-13T19:11:22.783Z,31.80
2023-02-13T19:16:27.909Z,30.40
2023-02-13T19:21:33.954Z,29.80
2023-02-13T19:26:38.169Z,26.60
2023-02-13T19:31:42.355Z,24.80
2023-02-13T19:36:46.024Z,26.80
2023-02-13T19:41:53.578Z,23.10
2023-02-13T19:46:57.936Z,28.00
2023-02-13T19:52:05.333Z,24.40
2023-02-13T19:57:15.783Z,26.70
2023-02-13T20:02:27.592Z,23.10
2023-02-13T20:07:37.868Z,22.90
2023-02-13T20:12:53.325Z,28.30
2023-02-13T20:17:57.466Z,26.50
2023-02-13T20:23:02.831Z,26.30
2023-02-13T20:28:11.184Z,29.90
2023-02-13T20:33:16.351Z,28.30
2023-02-13T20:38:20.318Z,31.60
2023-02-13T20:43:39.001Z,32.80
2023-02-13T20:48:45.059Z,34.80
2023-02-13T20:53:49.006Z,29.20
2023-02-13T20:58:58.189Z,30.60
2023-02-13T21:04:03.360Z,32.20
2023-02-13T21:09:12.559Z,34.00
2023-02-13T21:14:19.618Z,31.40
2023-02-13T21:19:46.864Z,31.90
2023-02-13T21:24:56.209Z,38.00
2023-02-13T21:30:42.659Z,32.90
2023-02-13T21:35:46.846Z,39.20
2023-02-13T21:40:51.250Z,32.60
2023-02-13T21:46:06.122Z,31.80
2023-02-13T21:51:15.824Z,32.00
2023-02-13T21:56:22.952Z,30.20
2023-02-13T22:02:20.661Z,31.00
2023-02-13T22:13:49.006Z,32.20
2023-02-13T22:18:56.276Z,32.60
2023-02-13T22:24:10.016Z,34.70
2023-02-13T22:29:17.968Z,33.40
2023-02-13T22:34:26.796Z,32.80
2023-02-13T22:39:39.460Z,29.30
2023-02-13T22:44:54.467Z,33.00
2023-02-13T22:50:05.218Z,32.40
2023-02-13T23:00:57.714Z,28.20
2023-02-13T23:06:09.945Z,27.90
2023-02-13T23:11:35.398Z,32.80
2023-02-13T23:17:00.796Z,29.80
2023-02-13T23:22:04.784Z,32.70
2023-02-13T23:27:12.317Z,27.80
2023-02-13T23:32:22.531Z,31.90
2023-02-13T23:37:58.912Z,33.30
2023-02-13T23:43:06.839Z,27.90
2023-02-13T23:48:12.273Z,30.10
2023-02-13T23:53:16.157Z,33.00
2023-02-13T23:58:20.056Z,30.20
